createdAt,value
2018-09-09T00:02:15.145Z,12.43
2018-09-09T00:04:42.765Z,16.20
2018-09-09T00:07:10.321Z,14.17
2018-09-09T00:09:43.676Z,15.83
2018-09-09T00:12:11.285Z,14.50
2018-09-09T00:14:38.860Z,15.07
2018-09-09T00:17:06.462Z,14.33
2018-09-09T00:19:34.162Z,17.00
2018-09-09T00:22:02.336Z,15.93
2018-09-09T00:24:29.981Z,20.30
2018-09-09T00:26:57.545Z,16.33
2018-09-09T00:29:25.125Z,19.53
2018-09-09T00:31:52.713Z,18.90
2018-09-09T00:34:20.552Z,15.57
2018-09-09T00:36:49.165Z,16.47
2018-09-09T00:39:16.741Z,16.20
2018-09-09T00:41:45.452Z,16.00
2018-09-09T00:44:13.012Z,13.60
2018-09-09T00:46:41.308Z,17.63
2018-09-09T00:49:15.133Z,14.63
2018-09-09T00:51:48.456Z,12.90
2018-09-09T00:54:16.047Z,14.07
2018-09-09T00:56:43.617Z,13.67
2018-09-09T00:59:11.749Z,15.07
2018-09-09T01:01:39.307Z,11.13
2018-09-09T01:04:06.911Z,13.27
2018-09-09T01:06:34.521Z,14.13
2018-09-09T01:09:02.304Z,13.10
2018-09-09T01:11:29.905Z,13.37
2018-09-09T01:13:57.552Z,17.53
2018-09-09T01:16:25.797Z,13.03
2018-09-09T01:18:53.368Z,12.53
2018-09-09T01:21:20.959Z,10.50
2018-09-09T01:23:48.545Z,14.70
2018-09-09T01:26:16.113Z,11.63
2018-09-09T01:28:43.741Z,12.93
2018-09-09T01:31:12.124Z,12.80
2018-09-09T01:33:39.792Z,13.10
2018-09-09T01:36:07.353Z,11.40
2018-09-09T01:38:34.923Z,16.80
2018-09-09T01:41:02.512Z,12.30
2018-09-09T01:43:30.069Z,14.47
2018-09-09T01:45:57.667Z,15.80
2018-09-09T01:48:26.205Z,14.53
2018-09-09T01:50:53.832Z,12.93
2018-09-09T01:53:21.413Z,13.27
2018-09-09T01:55:48.972Z,16.10
2018-09-09T01:58:16.589Z,15.23
2018-09-09T02:00:44.169Z,13.43
2018-09-09T02:03:12.776Z,11.77
2018-09-09T02:05:40.369Z,16.70
2018-09-09T02:08:08.567Z,11.93
2018-09-09T02:10:36.765Z,11.80
2018-09-09T02:13:04.524Z,14.57
2018-09-09T02:15:32.846Z,11.13
2018-09-09T02:18:00.486Z,20.03
2018-09-09T02:20:29.164Z,11.97
2018-09-09T02:22:56.752Z,13.47
2018-09-09T02:25:24.332Z,12.77
2018-09-09T02:27:51.920Z,12.73
2018-09-09T02:30:19.533Z,12.90
2018-09-09T02:32:48.701Z,16.80
2018-09-09T02:35:17.595Z,12.87
2018-09-09T02:37:45.191Z,14.67
2018-09-09T02:40:12.761Z,11.53
2018-09-09T02:42:41.374Z,14.43
2018-09-09T02:45:09.537Z,10.97
2018-09-09T02:47:37.157Z,11.77
2018-09-09T02:50:05.189Z,10.40
2018-09-09T02:52:32.768Z,14.70
2018-09-09T02:55:00.461Z,10.80
2018-09-09T02:57:28.032Z,12.77
2018-09-09T02:59:55.661Z,11.93
2018-09-09T03:02:23.240Z,19.13
2018-09-09T03:04:50.792Z,12.43
2018-09-09T03:07:22.431Z,17.27
2018-09-09T03:09:50.001Z,13.17
2018-09-09T03:12:17.597Z,15.17
2018-09-09T03:14:46.004Z,12.30
2018-09-09T03:17:13.568Z,11.90
2018-09-09T03:19:41.665Z,11.13
2018-09-09T03:22:09.253Z,13.67
2018-09-09T03:24:36.844Z,15.70
2018-09-09T03:27:04.991Z,21.20
2018-09-09T03:29:32.573Z,14.73
2018-09-09T03:32:00.161Z,14.63
2018-09-09T03:34:28.428Z,17.17
2018-09-09T03:36:55.963Z,17.47
2018-09-09T03:39:23.595Z,22.13
2018-09-09T03:41:51.176Z,16.47
2018-09-09T03:44:19.811Z,11.87
2018-09-09T03:46:47.372Z,11.83
2018-09-09T03:49:14.929Z,9.93
2018-09-09T03:51:42.553Z,13.07
2018-09-09T03:54:10.127Z,14.93
2018-09-09T03:56:37.784Z,12.30
2018-09-09T03:59:05.361Z,11.70
2018-09-09T04:01:33.565Z,12.17
2018-09-09T04:04:01.145Z,11.37
2018-09-09T04:06:28.753Z,11.10
2018-09-09T04:08:56.356Z,13.17
2018-09-09T04:11:24.960Z,10.93
2018-09-09T04:13:52.737Z,11.67
2018-09-09T04:16:20.318Z,14.23
2018-09-09T04:18:48.588Z,10.40
2018-09-09T04:21:16.185Z,11.17
2018-09-09T04:23:43.781Z,11.63
2018-09-09T04:26:11.392Z,12.77
2018-09-09T04:28:39.985Z,12.90
2018-09-09T04:31:07.560Z,12.10
2018-09-09T04:33:35.140Z,11.23
2018-09-09T04:36:03.389Z,13.43
2018-09-09T04:38:30.968Z,11.90
2018-09-09T04:40:58.575Z,13.37
2018-09-09T04:43:26.904Z,13.57
2018-09-09T04:45:55.237Z,12.30
2018-09-09T04:48:23.433Z,13.90
2018-09-09T04:50:51.012Z,12.17
2018-09-09T04:53:18.676Z,12.57
2018-09-09T04:55:46.260Z,14.13
2018-09-09T04:58:13.947Z,14.70
2018-09-09T05:00:41.536Z,13.77
2018-09-09T05:03:12.762Z,13.70
2018-09-09T05:05:40.445Z,19.50
2018-09-09T05:08:08.033Z,15.53
2018-09-09T05:10:35.647Z,14.20
2018-09-09T05:13:03.243Z,14.80
2018-09-09T05:15:30.872Z,17.10
2018-09-09T05:17:59.436Z,15.07
2018-09-09T05:20:27.964Z,13.57
2018-09-09T05:22:55.572Z,12.47
2018-09-09T05:25:23.217Z,13.43
2018-09-09T05:27:50.849Z,13.40
2018-09-09T05:30:18.532Z,12.80
2018-09-09T05:32:46.129Z,12.63
2018-09-09T05:35:15.400Z,14.90
2018-09-09T05:37:42.980Z,14.60
2018-09-09T05:40:10.580Z,15.43
2018-09-09T05:42:38.193Z,10.60
2018-09-09T05:45:06.140Z,13.70
2018-09-09T05:47:34.413Z,10.90
2018-09-09T05:50:02.056Z,9.57
2018-09-09T05:52:29.625Z,13.20
2018-09-09T05:54:58.252Z,12.00
2018-09-09T05:57:25.848Z,11.90
2018-09-09T05:59:53.467Z,13.43
2018-09-09T06:02:21.028Z,11.23
2018-09-09T06:04:48.633Z,10.60
2018-09-09T06:07:16.225Z,9.77
2018-09-09T06:09:43.817Z,9.63
2018-09-09T06:12:12.443Z,12.10
2018-09-09T06:14:40.004Z,11.93
2018-09-09T06:17:07.600Z,9.87
2018-09-09T06:19:35.521Z,11.20
2018-09-09T06:22:04.178Z,9.90
2018-09-09T06:24:31.802Z,10.80
2018-09-09T06:26:59.447Z,9.70
2018-09-09T06:29:27.049Z,10.83
2018-09-09T06:31:54.656Z,9.60
2018-09-09T06:34:22.247Z,8.57
2018-09-09T06:36:50.628Z,13.77
2018-09-09T06:39:18.189Z,8.20
2018-09-09T06:41:45.788Z,7.87
2018-09-09T06:44:13.356Z,7.87
2018-09-09T06:46:40.984Z,8.60
2018-09-09T06:49:08.560Z,10.23
2018-09-09T06:51:36.136Z,8.17
2018-09-09T06:54:03.760Z,7.30
2018-09-09T06:56:32.028Z,10.37
2018-09-09T06:59:00.217Z,6.30
2018-09-09T07:01:27.821Z,7.23
2018-09-09T07:03:55.426Z,6.60
2018-09-09T07:06:23.013Z,5.97
2018-09-09T07:08:50.617Z,7.77
2018-09-09T07:11:18.314Z,7.40
2018-09-09T07:13:45.860Z,6.67
2018-09-09T07:16:13.460Z,8.77
2018-09-09T07:18:41.067Z,8.03
2018-09-09T07:21:08.677Z,6.97
2018-09-09T07:23:36.277Z,8.37
2018-09-09T07:26:04.525Z,5.80
2018-09-09T07:28:32.207Z,7.87
2018-09-09T07:30:59.753Z,7.23
2018-09-09T07:33:27.356Z,7.07
2018-09-09T07:35:54.940Z,6.20
2018-09-09T07:38:22.526Z,8.17
2018-09-09T07:40:50.120Z,6.00
2018-09-09T07:43:17.829Z,5.47
2018-09-09T07:45:45.458Z,5.00
2018-09-09T07:48:13.023Z,5.73
2018-09-09T07:50:40.633Z,6.67
2018-09-09T07:53:08.242Z,5.73
2018-09-09T07:55:35.872Z,5.77
2018-09-09T07:58:03.445Z,5.50
2018-09-09T08:00:31.090Z,5.20
2018-09-09T08:02:58.634Z,5.50
2018-09-09T08:05:26.261Z,5.17
2018-09-09T08:07:54.449Z,5.60
2018-09-09T08:10:21.997Z,6.03
2018-09-09T08:12:49.760Z,5.03
2018-09-09T08:15:17.359Z,5.33
2018-09-09T08:17:44.936Z,5.07
2018-09-09T08:20:12.572Z,5.10
2018-09-09T08:22:40.213Z,5.07
2018-09-09T08:25:07.868Z,5.80
2018-09-09T08:27:36.013Z,8.80
2018-09-09T08:30:04.226Z,5.03
2018-09-09T08:32:33.292Z,4.90
2018-09-09T08:35:00.878Z,5.30
2018-09-09T08:37:28.576Z,5.37
2018-09-09T08:39:56.336Z,5.80
2018-09-09T08:42:24.198Z,4.47
2018-09-09T08:44:51.806Z,7.00
2018-09-09T08:47:19.370Z,7.80
2018-09-09T08:49:46.965Z,5.57
2018-09-09T08:52:14.651Z,7.40
2018-09-09T08:54:44.611Z,7.20
2018-09-09T08:57:15.933Z,5.77
2018-09-09T08:59:43.532Z,5.20
2018-09-09T09:02:11.180Z,4.60
2018-09-09T09:04:38.784Z,6.67
2018-09-09T09:07:06.340Z,4.63
2018-09-09T09:09:33.965Z,6.00
2018-09-09T09:12:06.358Z,5.30
2018-09-09T09:14:33.945Z,5.10
2018-09-09T09:17:01.512Z,4.40
2018-09-09T09:19:29.064Z,4.30
2018-09-09T09:21:56.639Z,4.57
2018-09-09T09:24:24.214Z,3.73
2018-09-09T09:26:51.782Z,4.30
2018-09-09T09:29:19.384Z,6.83
2018-09-09T09:31:46.952Z,4.30
2018-09-09T09:34:14.531Z,4.37
2018-09-09T09:36:42.092Z,4.83
2018-09-09T09:39:09.695Z,4.20
2018-09-09T09:41:37.261Z,3.10
2018-09-09T09:44:04.844Z,3.70
2018-09-09T09:46:32.412Z,4.20
2018-09-09T09:48:59.993Z,2.97
2018-09-09T09:51:27.572Z,4.00
2018-09-09T09:53:55.156Z,5.93
2018-09-09T09:56:22.720Z,2.80
2018-09-09T09:58:53.529Z,6.20
2018-09-09T10:01:21.116Z,3.20
2018-09-09T10:03:48.777Z,2.80
2018-09-09T10:06:16.524Z,2.97
2018-09-09T10:08:44.129Z,2.90
2018-09-09T10:11:11.731Z,3.27
2018-09-09T10:13:39.354Z,4.93
2018-09-09T10:16:06.932Z,3.13
2018-09-09T10:18:34.544Z,3.27
2018-09-09T10:21:02.184Z,3.13
2018-09-09T10:23:29.761Z,3.50
2018-09-09T10:25:57.376Z,3.80
2018-09-09T10:28:25.552Z,3.80
2018-09-09T10:30:53.125Z,3.63
2018-09-09T10:33:20.741Z,3.20
2018-09-09T10:35:48.309Z,3.30
2018-09-09T10:38:16.891Z,3.67
2018-09-09T10:40:44.455Z,4.10
2018-09-09T10:43:12.039Z,4.80
2018-09-09T10:45:39.612Z,3.27
2018-09-09T10:48:07.183Z,3.03
2018-09-09T10:50:34.769Z,4.67
2018-09-09T10:53:02.400Z,4.50
2018-09-09T10:55:29.981Z,3.47
2018-09-09T10:57:57.591Z,3.10
2018-09-09T11:00:25.187Z,3.43
2018-09-09T11:02:53.524Z,5.80
2018-09-09T11:05:21.236Z,4.33
2018-09-09T11:07:49.143Z,3.80
2018-09-09T11:10:16.752Z,6.13
2018-09-09T11:12:44.492Z,3.30
2018-09-09T11:15:12.120Z,3.50
2018-09-09T11:17:40.426Z,4.00
2018-09-09T11:20:08.001Z,3.70
2018-09-09T11:22:35.593Z,3.57
2018-09-09T11:25:03.225Z,3.77
2018-09-09T11:27:30.821Z,3.80
2018-09-09T11:29:58.488Z,3.90
2018-09-09T11:32:26.120Z,3.50
2018-09-09T11:34:53.939Z,4.80
2018-09-09T11:37:21.564Z,3.70
2018-09-09T11:39:49.171Z,4.30
2018-09-09T11:42:16.804Z,4.70
2018-09-09T11:44:44.550Z,4.20
2018-09-09T11:47:12.115Z,7.70
2018-09-09T11:49:39.716Z,3.27
2018-09-09T11:52:08.053Z,3.97
2018-09-09T11:54:35.955Z,3.77
2018-09-09T11:57:03.649Z,4.07
2018-09-09T11:59:31.390Z,3.60
2018-09-09T12:01:59.010Z,3.80
2018-09-09T12:04:26.657Z,3.60
2018-09-09T12:06:54.240Z,5.70
2018-09-09T12:09:21.849Z,3.80
2018-09-09T12:11:49.410Z,4.63
2018-09-09T12:14:17.584Z,3.60
2018-09-09T12:16:45.164Z,3.63
2018-09-09T12:19:12.743Z,3.83
2018-09-09T12:21:40.337Z,3.20
2018-09-09T12:24:07.922Z,2.97
2018-09-09T12:26:36.281Z,7.33
2018-09-09T12:29:03.869Z,3.30
2018-09-09T12:31:32.573Z,4.03
2018-09-09T12:34:00.177Z,4.20
2018-09-09T12:36:27.776Z,4.27
2018-09-09T12:38:55.344Z,3.47
2018-09-09T12:41:23.197Z,2.83
2018-09-09T12:44:58.788Z,3.30
2018-09-09T12:47:32.177Z,2.83
2018-09-09T12:50:00.448Z,4.90
2018-09-09T12:52:29.009Z,2.80
2018-09-09T12:54:56.761Z,2.80
2018-09-09T12:57:24.356Z,3.40
2018-09-09T12:59:52.000Z,2.93
2018-09-09T13:02:19.584Z,4.70
2018-09-09T13:04:47.157Z,3.10
2018-09-09T13:07:14.783Z,3.10
2018-09-09T13:09:42.749Z,3.23
2018-09-09T13:12:11.404Z,2.80
2018-09-09T13:14:39.062Z,2.90
2018-09-09T13:17:06.644Z,3.33
2018-09-09T13:19:34.921Z,2.80
2018-09-09T13:22:02.519Z,2.83
2018-09-09T13:24:30.117Z,2.80
2018-09-09T13:26:58.482Z,2.60
2018-09-09T13:29:26.271Z,3.40
2018-09-09T13:31:53.863Z,3.03
2018-09-09T13:34:21.474Z,3.37
2018-09-09T13:36:49.248Z,3.40
2018-09-09T13:39:17.050Z,3.00
2018-09-09T13:41:44.645Z,3.13
2018-09-09T13:44:13.520Z,4.40
2018-09-09T13:46:41.144Z,4.33
2018-09-09T13:49:08.763Z,3.43
2018-09-09T13:51:36.665Z,4.20
2018-09-09T13:54:04.240Z,3.00
2018-09-09T13:56:31.836Z,3.73
2018-09-09T13:59:00.483Z,2.67
2018-09-09T14:01:28.113Z,2.90
2018-09-09T14:03:55.754Z,2.90
2018-09-09T14:06:24.341Z,3.47
2018-09-09T14:08:53.297Z,3.47
2018-09-09T14:11:20.900Z,2.93
2018-09-09T14:13:49.125Z,3.60
2018-09-09T14:16:17.327Z,3.03
2018-09-09T14:18:44.924Z,3.23
2018-09-09T14:21:12.492Z,2.93
2018-09-09T14:23:40.101Z,3.00
2018-09-09T14:26:07.712Z,4.80
2018-09-09T14:28:35.361Z,3.60
2018-09-09T14:31:03.025Z,3.43
2018-09-09T14:33:30.581Z,3.17
2018-09-09T14:35:58.193Z,2.40
2018-09-09T14:38:26.365Z,3.17
2018-09-09T14:40:53.993Z,3.40
2018-09-09T14:43:21.592Z,3.40
2018-09-09T14:45:49.160Z,5.83
2018-09-09T14:48:17.905Z,20.83
2018-09-09T14:50:45.492Z,3.57
2018-09-09T14:53:13.141Z,3.00
2018-09-09T14:55:40.709Z,3.60
2018-09-09T14:58:09.579Z,3.00
2018-09-09T15:00:37.811Z,3.73
2018-09-09T15:03:05.408Z,3.57
2018-09-09T15:05:33.005Z,3.73
2018-09-09T15:08:00.637Z,3.30
2018-09-09T15:10:28.225Z,3.70
2018-09-09T15:12:56.392Z,3.57
2018-09-09T15:15:24.016Z,3.90
2018-09-09T15:17:51.714Z,3.90
2018-09-09T15:20:19.303Z,3.60
2018-09-09T15:22:46.944Z,3.83
2018-09-09T15:25:15.117Z,3.93
2018-09-09T15:27:42.752Z,3.43
2018-09-09T15:30:13.759Z,4.70
2018-09-09T15:32:47.514Z,4.60
2018-09-09T15:35:15.161Z,3.60
2018-09-09T15:37:42.871Z,3.33
2018-09-09T15:40:10.624Z,3.40
2018-09-09T15:42:40.690Z,3.40
2018-09-09T15:45:12.199Z,2.77
2018-09-09T15:47:44.009Z,4.10
2018-09-09T15:50:13.255Z,3.77
2018-09-09T15:52:41.504Z,3.70
2018-09-09T15:55:09.118Z,3.27
2018-09-09T15:57:36.739Z,3.27
2018-09-09T16:00:04.429Z,3.50
2018-09-09T16:02:32.008Z,3.47
2018-09-09T16:04:59.657Z,4.10
2018-09-09T16:07:29.607Z,3.90
2018-09-09T16:09:57.506Z,3.83
2018-09-09T16:12:25.213Z,3.83
2018-09-09T16:14:52.801Z,4.80
2018-09-09T16:17:20.448Z,3.00
2018-09-09T16:19:48.060Z,4.20
2018-09-09T16:22:15.665Z,12.33
2018-09-09T16:24:43.280Z,4.50
2018-09-09T16:27:10.843Z,4.60
2018-09-09T16:29:39.052Z,4.67
2018-09-09T16:32:06.612Z,4.20
2018-09-09T16:34:34.176Z,3.60
2018-09-09T16:37:01.780Z,4.67
2018-09-09T16:39:30.636Z,5.73
2018-09-09T16:41:59.189Z,4.80
2018-09-09T16:44:26.917Z,4.50
2018-09-09T16:46:54.545Z,4.40
2018-09-09T16:49:22.153Z,4.83
2018-09-09T16:51:49.849Z,5.27
2018-09-09T16:54:17.504Z,6.43
2018-09-09T16:56:45.177Z,6.27
2018-09-09T16:59:12.756Z,6.30
2018-09-09T17:01:40.382Z,5.10
2018-09-09T17:04:08.533Z,7.23
2018-09-09T17:06:36.164Z,4.77
2018-09-09T17:09:06.671Z,4.77
2018-09-09T17:11:34.309Z,5.63
2018-09-09T17:14:01.938Z,10.30
2018-09-09T17:16:29.820Z,7.67
2018-09-09T17:18:58.125Z,5.57
2018-09-09T17:21:25.720Z,4.47
2018-09-09T17:23:53.498Z,5.50
2018-09-09T17:26:21.085Z,4.70
2018-09-09T17:28:48.929Z,6.90
2018-09-09T17:31:17.040Z,5.87
2018-09-09T17:33:45.413Z,5.53
2018-09-09T17:36:13.064Z,4.60
2018-09-09T17:38:40.688Z,5.60
2018-09-09T17:41:08.348Z,6.40
2018-09-09T17:43:35.976Z,6.40
2018-09-09T17:46:03.576Z,5.63
2018-09-09T17:48:31.216Z,5.23
2018-09-09T17:50:58.789Z,5.03
2018-09-09T17:53:26.428Z,8.40
2018-09-09T17:55:54.066Z,7.33
2018-09-09T17:58:22.033Z,6.00
2018-09-09T18:00:50.265Z,7.57
2018-09-09T18:03:17.922Z,5.30
2018-09-09T18:05:45.581Z,6.00
2018-09-09T18:08:14.187Z,5.70
2018-09-09T18:10:42.340Z,5.20
2018-09-09T18:13:09.920Z,6.37
2018-09-09T18:15:37.509Z,4.80
2018-09-09T18:18:05.245Z,5.30
2018-09-09T18:20:32.931Z,6.03
2018-09-09T18:23:05.493Z,6.70
2018-09-09T18:25:33.100Z,6.57
2018-09-09T18:28:00.785Z,6.03
2018-09-09T18:30:28.429Z,5.57
2018-09-09T18:32:56.009Z,9.97
2018-09-09T18:35:23.641Z,5.50
2018-09-09T18:37:51.400Z,5.53
2018-09-09T18:40:18.997Z,7.90
2018-09-09T18:42:46.631Z,6.00
2018-09-09T18:45:14.282Z,5.90
2018-09-09T18:47:41.878Z,7.23
2018-09-09T18:50:09.473Z,6.37
2018-09-09T18:52:37.099Z,6.23
2018-09-09T18:55:04.724Z,6.17
2018-09-09T18:57:32.664Z,5.70
2018-09-09T19:00:00.246Z,6.13
2018-09-09T19:02:27.867Z,5.63
2018-09-09T19:04:55.417Z,7.20
2018-09-09T19:07:23.063Z,6.70
2018-09-09T19:09:50.686Z,7.47
2018-09-09T19:12:19.864Z,5.70
2018-09-09T19:14:48.548Z,8.10
2018-09-09T19:17:17.173Z,5.90
2018-09-09T19:19:44.891Z,5.80
2018-09-09T19:22:12.632Z,6.00
2018-09-09T19:24:40.220Z,6.53
2018-09-09T19:27:07.865Z,7.90
2018-09-09T19:29:35.580Z,6.63
2018-09-09T19:32:03.423Z,5.60
2018-09-09T19:34:31.020Z,6.03
2018-09-09T19:36:58.624Z,5.87
2018-09-09T19:39:26.253Z,5.83
2018-09-09T19:41:54.465Z,7.13
2018-09-09T19:44:22.042Z,6.90
2018-09-09T19:46:49.704Z,5.70
2018-09-09T19:49:17.288Z,11.23
2018-09-09T19:51:44.913Z,8.33
2018-09-09T19:54:12.592Z,6.10
2018-09-09T19:56:40.206Z,6.13
2018-09-09T19:59:07.864Z,7.23
2018-09-09T20:01:35.509Z,5.20
2018-09-09T20:04:03.092Z,5.73
2018-09-09T20:06:30.696Z,7.50
2018-09-09T20:08:58.295Z,6.17
2018-09-09T20:11:25.913Z,6.20
2018-09-09T20:13:53.513Z,6.87
2018-09-09T20:16:21.109Z,11.10
2018-09-09T20:18:48.700Z,9.33
2018-09-09T20:21:16.331Z,6.70
2018-09-09T20:23:43.960Z,7.40
2018-09-09T20:26:11.574Z,5.77
2018-09-09T20:28:39.181Z,7.83
2018-09-09T20:31:06.818Z,5.70
2018-09-09T20:33:34.429Z,6.40
2018-09-09T20:36:02.023Z,6.30
2018-09-09T20:38:29.668Z,6.17
2018-09-09T20:40:57.329Z,5.87
2018-09-09T20:43:24.940Z,6.33
2018-09-09T20:45:52.558Z,5.53
2018-09-09T20:48:20.152Z,5.37
2018-09-09T20:50:47.745Z,6.23
2018-09-09T20:53:15.380Z,6.07
2018-09-09T20:55:42.987Z,6.67
2018-09-09T20:58:10.599Z,5.07
2018-09-09T21:00:38.210Z,10.57
2018-09-09T21:03:05.790Z,8.13
2018-09-09T21:05:34.437Z,6.50
2018-09-09T21:08:02.028Z,5.70
2018-09-09T21:10:29.741Z,5.33
2018-09-09T21:12:57.337Z,7.23
2018-09-09T21:15:25.049Z,7.00
2018-09-09T21:17:52.640Z,6.83
2018-09-09T21:20:20.333Z,8.03
2018-09-09T21:22:47.983Z,7.40
2018-09-09T21:25:15.613Z,8.27
2018-09-09T21:27:43.220Z,6.00
2018-09-09T21:30:10.841Z,6.13
2018-09-09T21:32:38.444Z,8.50
2018-09-09T21:35:06.244Z,6.27
2018-09-09T21:37:34.862Z,11.60
2018-09-09T21:40:02.513Z,7.57
2018-09-09T21:42:30.081Z,7.93
2018-09-09T21:44:58.305Z,5.83
2018-09-09T21:47:26.086Z,8.33
2018-09-09T21:49:54.754Z,6.80
2018-09-09T21:52:22.390Z,6.10
2018-09-09T21:54:50.000Z,6.20
2018-09-09T21:57:17.696Z,7.00
2018-09-09T21:59:45.311Z,9.47
2018-09-09T22:02:13.692Z,7.30
2018-09-09T22:04:41.435Z,6.33
2018-09-09T22:07:10.790Z,8.37
2018-09-09T22:09:39.392Z,6.10
2018-09-09T22:12:07.317Z,6.57
2018-09-09T22:14:34.992Z,5.40
2018-09-09T22:17:03.416Z,7.30
2018-09-09T22:19:31.027Z,7.77
2018-09-09T22:21:58.608Z,7.97
2018-09-09T22:24:26.196Z,6.90
2018-09-09T22:26:53.804Z,7.17
2018-09-09T22:29:21.451Z,6.57
2018-09-09T22:31:49.011Z,7.47
2018-09-09T22:34:17.341Z,7.73
2018-09-09T22:36:44.969Z,7.97
2018-09-09T22:39:12.600Z,7.53
2018-09-09T22:41:40.218Z,7.37
2018-09-09T22:44:09.896Z,7.80
2018-09-09T22:46:37.475Z,7.00
2018-09-09T22:49:07.097Z,7.13
2018-09-09T22:51:34.657Z,7.63
2018-09-09T22:54:02.517Z,8.20
2018-09-09T22:56:30.104Z,6.60
2018-09-09T22:58:57.712Z,7.83
2018-09-09T23:01:25.317Z,8.63
2018-09-09T23:03:53.100Z,7.30
2018-09-09T23:06:21.731Z,9.10
2018-09-09T23:08:49.297Z,6.53
2018-09-09T23:11:16.861Z,6.83
2018-09-09T23:13:44.449Z,7.30
2018-09-09T23:16:12.066Z,7.43
2018-09-09T23:18:39.704Z,8.23
2018-09-09T23:21:07.298Z,8.30
2018-09-09T23:23:34.869Z,7.50
2018-09-09T23:26:02.469Z,7.07
2018-09-09T23:28:30.073Z,7.27
2018-09-09T23:30:58.232Z,6.70
2018-09-09T23:33:25.797Z,7.80
2018-09-09T23:35:53.812Z,8.70
2018-09-09T23:38:21.773Z,7.50
2018-09-09T23:40:49.409Z,8.17
2018-09-09T23:43:16.992Z,9.50
2018-09-09T23:45:45.340Z,9.53
2018-09-09T23:48:12.932Z,7.00
2018-09-09T23:50:40.519Z,7.33
2018-09-09T23:53:08.276Z,7.93
2018-09-09T23:55:35.890Z,6.50
2018-09-09T23:58:03.478Z,7.80
